EmailTwitter


Surface observations / Quebec / CYUL (71627)

Regions: Quebec | Canada | USA | Europe | France | UK | Elsewhere
Station
Display
Info & Location for CYUL (71627) | Help decoding METAR

Weather Conditions observed on 2018/04/24 at 08:00 UTC at MONTREAL INTL A, QB (CYUL)

Sky conditions: few clouds.

Temperature: 6.0 Celsius.

Dewpoint: -3.0 Celsius.

Relative Humidity: 52%

Winds: Variable at 4 km/h or 2 knots.

Mean Sea level Pressure: 102.38 kilopascals.

Altimeter Setting (QNH): 102.37 kilopascals or 30.23 inches of mercury.

Horizontal visibility: 15.00 statute miles or 24.00 kilometers.

Coded METAR:

CYUL 240800Z VRB02KT 15SM FEW240 06/M03 A3023 RMK CI1 SLP238=